Startpagina
METAR-TAF:

METAR-TAF

Vliegvelden :

Aeroporto Internacional Salgado Filho

Porto Alegre, Rio Grande do Sul, Brazilië

breedte: 30-00S, lengte: 051-11W, hoogte: 3 m

Actueel weer

Dit bericht is 37 minuten geleden gemaakt, om 03:00 UTC
Wind 3 kt uit het oostzuidoosten
Temperatuur 18°C
Vochtigheid 83%
Druk 1016 hPa
Zicht 10 km of meer
geen wolken onder 1500 m en geen cumulonimbus

METAR: SBPA 210300Z 11003KT CAVOK 18/15 Q1016

Tijdstip: 01:37 (03:37 UTC)

Verwachting

Dit bericht is 5 uur en het 37 minuten geleden gemaakt, om 22:00 UTC
Verwachting geldig van 21 om 00 UTC tot 21 om 24 UTC
Wind 8 kt uit het oostzuidoosten
Zicht 10 km of meer
geen wolken onder 1500 m en geen cumulonimbus

TAF: SBPA 202200Z 2100/2124 11008KT CAVOK TN15/2108Z TX32/2118Z RMK PC X

Waarnemingen en weersverwachtingen van meer dan 4000 vliegvelden (METAR en TAF).

De beschikbare stations zijn de gele en rode punten op de kaart.

Ga met uw muis naar het station om de naam te zien.

Klik dan om waarnemingen en weersverwachtingen te zien.

kaart wijzigen: klik op de groene knoppen met een zwart kruis om in te zoomen, op de groene knop met een streepje om uit te zoomen of op de groene pijlen voor aangrenzende kaarten.


METAR-TAF: